createdAt,value
2018-03-03T00:00:20.038Z,64.55
2018-03-03T00:02:46.295Z,64.62
2018-03-03T00:05:12.553Z,67.60
2018-03-03T00:07:38.785Z,64.32
2018-03-03T00:10:05.018Z,65.20
2018-03-03T00:12:31.627Z,67.03
2018-03-03T00:14:57.877Z,69.22
2018-03-03T00:17:24.999Z,64.80
2018-03-03T00:19:51.233Z,66.90
2018-03-03T00:22:23.642Z,66.30
2018-03-03T00:24:50.206Z,71.62
2018-03-03T00:27:16.447Z,65.75
2018-03-03T00:29:42.680Z,70.03
2018-03-03T00:32:08.923Z,70.68
2018-03-03T00:34:35.153Z,68.15
2018-03-03T00:37:01.392Z,69.70
2018-03-03T00:39:27.625Z,70.45
2018-03-03T00:41:53.849Z,68.07
2018-03-03T00:44:20.104Z,70.15
2018-03-03T00:46:46.307Z,67.57
2018-03-03T00:49:12.541Z,67.55
2018-03-03T00:51:38.770Z,67.85
2018-03-03T00:54:05.018Z,72.40
2018-03-03T00:56:31.224Z,69.90
2018-03-03T00:58:57.431Z,68.18
2018-03-03T01:01:23.927Z,69.40
2018-03-03T01:03:50.134Z,67.60
2018-03-03T01:06:16.373Z,71.40
2018-03-03T01:08:42.609Z,68.18
2018-03-03T01:11:08.829Z,69.95
2018-03-03T01:13:35.057Z,68.45
2018-03-03T01:16:01.298Z,66.35
2018-03-03T01:18:27.555Z,66.87
2018-03-03T01:20:53.810Z,67.45
2018-03-03T01:23:20.017Z,70.68
2018-03-03T01:25:46.210Z,66.85
2018-03-03T01:28:12.425Z,70.05
2018-03-03T01:30:38.621Z,67.28
2018-03-03T01:33:04.864Z,69.80
2018-03-03T01:35:31.470Z,67.62
2018-03-03T01:37:57.696Z,68.40
2018-03-03T01:40:23.931Z,65.55
2018-03-03T01:42:50.151Z,67.97
2018-03-03T01:45:16.400Z,69.18
2018-03-03T01:47:42.650Z,68.47
2018-03-03T01:50:08.858Z,71.50
2018-03-03T01:52:35.063Z,73.53
2018-03-03T01:55:01.253Z,71.03
2018-03-03T01:57:27.497Z,69.60
2018-03-03T01:59:53.715Z,68.87
2018-03-03T02:02:19.907Z,70.82
2018-03-03T02:04:46.953Z,69.43
2018-03-03T02:07:13.520Z,69.95
2018-03-03T02:09:39.714Z,66.32
2018-03-03T02:12:06.325Z,70.07
2018-03-03T02:14:32.552Z,68.00
2018-03-03T02:16:58.760Z,68.25
2018-03-03T02:19:24.989Z,68.15
2018-03-03T02:21:51.220Z,68.53
2018-03-03T02:24:17.453Z,69.82
2018-03-03T02:26:43.692Z,67.30
2018-03-03T02:29:09.905Z,70.50
2018-03-03T02:31:36.186Z,70.10
2018-03-03T02:34:02.423Z,73.18
2018-03-03T02:36:28.647Z,69.50
2018-03-03T02:38:54.889Z,70.82
2018-03-03T02:41:21.126Z,69.37
2018-03-03T02:43:47.347Z,70.95
2018-03-03T02:46:13.573Z,69.25
2018-03-03T02:48:39.813Z,68.53
2018-03-03T02:51:06.023Z,72.30
2018-03-03T02:53:32.272Z,70.93
2018-03-03T02:55:58.471Z,69.18
2018-03-03T02:58:24.720Z,69.25
2018-03-03T03:00:50.917Z,68.90
2018-03-03T03:03:17.158Z,70.03
2018-03-03T03:05:43.392Z,68.60
2018-03-03T03:08:09.615Z,75.07
2018-03-03T03:10:35.847Z,70.60
2018-03-03T03:13:02.071Z,71.80
2018-03-03T03:15:28.323Z,68.80
2018-03-03T03:17:54.809Z,67.50
2018-03-03T03:20:21.398Z,68.45
2018-03-03T03:22:47.598Z,71.68
2018-03-03T03:25:13.830Z,73.50
2018-03-03T03:27:40.083Z,76.62
2018-03-03T03:30:06.296Z,67.93
2018-03-03T03:32:32.885Z,73.90
2018-03-03T03:34:59.094Z,69.40
2018-03-03T03:37:25.328Z,80.32
2018-03-03T03:39:51.551Z,73.53
2018-03-03T03:42:17.809Z,73.47
2018-03-03T03:44:44.374Z,73.12
2018-03-03T03:47:10.631Z,71.85
2018-03-03T03:49:36.844Z,69.87
2018-03-03T03:52:03.097Z,68.40
2018-03-03T03:54:29.362Z,70.57
2018-03-03T03:56:55.581Z,66.90
2018-03-03T03:59:21.825Z,66.85
2018-03-03T04:01:48.043Z,65.68
2018-03-03T04:04:14.276Z,67.12
2018-03-03T04:06:40.481Z,62.17
2018-03-03T04:09:06.722Z,39.97
2018-03-03T04:11:32.928Z,38.15
2018-03-03T04:13:59.169Z,39.13
2018-03-03T04:16:25.700Z,41.53
2018-03-03T04:18:51.917Z,48.17
2018-03-03T04:21:18.126Z,46.05
2018-03-03T04:23:44.417Z,52.55
2018-03-03T04:26:10.652Z,55.78
2018-03-03T04:28:36.878Z,56.10
2018-03-03T04:31:03.474Z,53.97
2018-03-03T04:33:29.734Z,56.10
2018-03-03T04:35:55.959Z,52.78
2018-03-03T04:38:22.607Z,49.35
2018-03-03T04:40:48.805Z,50.10
2018-03-03T04:43:15.075Z,50.80
2018-03-03T04:45:41.575Z,46.08
2018-03-03T04:48:07.833Z,48.35
2018-03-03T04:50:34.057Z,51.40
2018-03-03T04:53:00.324Z,49.67
2018-03-03T04:55:26.593Z,46.13
2018-03-03T04:57:53.253Z,41.83
2018-03-03T05:00:25.450Z,41.33
2018-03-03T05:03:07.507Z,48.30
2018-03-03T05:05:52.608Z,46.03
2018-03-03T05:08:24.810Z,44.53
2018-03-03T05:10:52.044Z,40.40
2018-03-03T05:13:24.226Z,43.70
2018-03-03T05:16:02.366Z,43.42
2018-03-03T05:18:34.841Z,39.35
2018-03-03T05:21:16.027Z,37.28
2018-03-03T05:23:59.103Z,36.90
2018-03-03T05:26:46.450Z,34.80
2018-03-03T05:29:18.824Z,38.40
2018-03-03T05:31:51.515Z,36.60
2018-03-03T05:34:23.921Z,34.35
2018-03-03T05:36:56.233Z,34.67
2018-03-03T05:39:43.336Z,34.75
2018-03-03T05:42:15.547Z,36.53
2018-03-03T05:44:47.810Z,36.47
2018-03-03T05:47:35.738Z,35.35
2018-03-03T05:50:22.190Z,36.20
2018-03-03T05:52:54.413Z,36.00
2018-03-03T05:55:37.907Z,35.33
2018-03-03T05:58:20.036Z,37.67
2018-03-03T06:00:52.309Z,36.97
2018-03-03T06:03:33.471Z,36.67
2018-03-03T06:06:06.566Z,34.70
2018-03-03T06:08:47.034Z,34.47
2018-03-03T06:11:13.256Z,37.03
2018-03-03T06:13:39.514Z,35.50
2018-03-03T06:16:05.750Z,35.75
2018-03-03T06:18:32.078Z,34.47
2018-03-03T06:20:58.336Z,34.08
2018-03-03T06:23:24.576Z,32.42
2018-03-03T06:25:50.847Z,30.12
2018-03-03T06:28:17.488Z,32.83
2018-03-03T06:30:43.727Z,29.95
2018-03-03T06:33:09.990Z,31.17
2018-03-03T06:35:36.235Z,31.67
2018-03-03T06:38:02.534Z,31.42
2018-03-03T06:40:28.749Z,33.58
2018-03-03T06:42:54.940Z,32.72
2018-03-03T06:45:21.578Z,34.75
2018-03-03T06:47:47.809Z,33.88
2018-03-03T06:50:14.006Z,32.42
2018-03-03T06:52:40.250Z,29.60
2018-03-03T06:55:06.457Z,30.92
2018-03-03T06:57:32.672Z,31.35
2018-03-03T06:59:58.936Z,35.55
2018-03-03T07:02:25.182Z,36.45
2018-03-03T07:04:51.795Z,35.78
2018-03-03T07:07:18.023Z,33.60
2018-03-03T07:09:44.250Z,33.85
2018-03-03T07:12:10.520Z,36.67
2018-03-03T07:14:51.735Z,35.53
2018-03-03T07:17:17.990Z,34.30
2018-03-03T07:19:44.237Z,34.72
2018-03-03T07:22:10.457Z,37.10
2018-03-03T07:24:36.682Z,36.45
2018-03-03T07:27:02.947Z,35.22
2018-03-03T07:29:29.181Z,34.65
2018-03-03T07:31:55.391Z,32.72
2018-03-03T07:34:21.647Z,33.35
2018-03-03T07:36:47.902Z,33.88
2018-03-03T07:39:14.904Z,37.17
2018-03-03T07:41:41.162Z,37.72
2018-03-03T07:44:07.420Z,38.38
2018-03-03T07:46:33.614Z,35.42
2018-03-03T07:48:59.838Z,32.50
2018-03-03T07:51:26.130Z,32.75
2018-03-03T07:53:52.702Z,33.47
2018-03-03T07:56:18.934Z,35.42
2018-03-03T07:58:49.043Z,36.63
2018-03-03T08:01:15.282Z,34.35
2018-03-03T08:03:41.573Z,33.55
2018-03-03T08:06:08.161Z,32.50
2018-03-03T08:08:34.422Z,35.08
2018-03-03T08:11:00.686Z,36.70
2018-03-03T08:13:26.928Z,38.42
2018-03-03T08:15:53.165Z,43.28
2018-03-03T08:18:19.404Z,42.15
2018-03-03T08:20:45.628Z,60.90
2018-03-03T08:23:11.855Z,44.90
2018-03-03T08:25:38.094Z,39.72
2018-03-03T08:28:04.341Z,39.38
2018-03-03T08:30:30.548Z,38.65
2018-03-03T08:32:56.786Z,38.40
2018-03-03T08:35:23.020Z,35.28
2018-03-03T08:37:49.257Z,37.85
2018-03-03T08:40:15.495Z,34.55
2018-03-03T08:42:41.713Z,33.42
2018-03-03T08:45:07.946Z,33.38
2018-03-03T08:47:34.177Z,37.05
2018-03-03T08:50:00.409Z,36.65
2018-03-03T08:52:26.647Z,36.72
2018-03-03T08:54:52.884Z,38.05
2018-03-03T08:57:19.107Z,37.55
2018-03-03T08:59:45.375Z,38.70
2018-03-03T09:02:11.615Z,41.97
2018-03-03T09:04:37.817Z,43.40
2018-03-03T09:07:04.009Z,42.30
2018-03-03T09:09:30.241Z,40.65
2018-03-03T09:11:56.515Z,42.40
2018-03-03T09:14:22.745Z,42.53
2018-03-03T09:16:48.986Z,44.00
2018-03-03T09:19:15.231Z,45.85
2018-03-03T09:21:41.478Z,50.58
2018-03-03T09:24:08.068Z,46.10
2018-03-03T09:26:34.320Z,46.05
2018-03-03T09:29:00.581Z,46.88
2018-03-03T09:31:27.150Z,46.08
2018-03-03T09:33:53.388Z,47.58
2018-03-03T09:36:20.077Z,48.65
2018-03-03T09:38:46.662Z,62.17
2018-03-03T09:41:12.922Z,40.33
2018-03-03T09:43:39.215Z,50.42
2018-03-03T09:46:05.474Z,46.22
2018-03-03T09:48:31.717Z,47.78
2018-03-03T09:50:57.943Z,46.50
2018-03-03T09:53:24.206Z,44.95
2018-03-03T09:55:50.455Z,45.78
2018-03-03T09:58:16.692Z,50.67
2018-03-03T10:00:42.977Z,64.03
2018-03-03T10:03:09.254Z,55.85
2018-03-03T10:05:35.527Z,50.22
2018-03-03T10:08:01.728Z,48.30
2018-03-03T10:10:27.969Z,44.35
2018-03-03T10:12:54.220Z,41.90
2018-03-03T10:15:20.522Z,44.33
2018-03-03T10:17:46.821Z,45.78
2018-03-03T10:20:13.039Z,45.45
2018-03-03T10:22:39.619Z,43.45
2018-03-03T10:25:05.807Z,42.05
2018-03-03T10:27:32.034Z,47.42
2018-03-03T10:29:58.274Z,44.38
2018-03-03T10:32:24.518Z,47.05
2018-03-03T10:34:50.775Z,50.25
2018-03-03T10:37:17.402Z,44.47
2018-03-03T10:39:44.016Z,42.70
2018-03-03T10:42:10.588Z,42.05
2018-03-03T10:44:36.802Z,43.42
2018-03-03T10:47:09.874Z,47.50
2018-03-03T10:49:36.150Z,44.90
2018-03-03T10:52:02.768Z,48.50
2018-03-03T10:54:29.373Z,44.80
2018-03-03T10:56:56.067Z,45.22
2018-03-03T10:59:22.313Z,48.17
2018-03-03T11:01:48.570Z,49.17
2018-03-03T11:04:14.870Z,47.35
2018-03-03T11:06:41.108Z,47.05
2018-03-03T11:09:07.340Z,46.40
2018-03-03T11:11:33.610Z,50.35
2018-03-03T11:16:33.557Z,53.75
2018-03-03T11:18:59.758Z,51.60
2018-03-03T11:21:25.988Z,52.28
2018-03-03T11:23:52.282Z,50.88
2018-03-03T11:26:18.543Z,52.80
2018-03-03T11:28:44.741Z,51.30
2018-03-03T11:31:10.996Z,49.63
2018-03-03T11:33:37.210Z,52.83
2018-03-03T11:36:03.456Z,53.28
2018-03-03T11:38:29.684Z,55.33
2018-03-03T11:40:55.937Z,55.42
2018-03-03T11:43:22.169Z,49.95
2018-03-03T11:45:48.397Z,47.88
2018-03-03T11:48:14.610Z,48.05
2018-03-03T11:50:41.231Z,50.97
2018-03-03T11:53:07.432Z,47.08
2018-03-03T11:55:33.681Z,49.53
2018-03-03T11:57:59.922Z,46.05
2018-03-03T12:00:26.543Z,47.62
2018-03-03T12:02:52.827Z,44.08
2018-03-03T12:05:19.086Z,46.65
2018-03-03T12:07:45.333Z,44.30
2018-03-03T12:10:11.585Z,44.55
2018-03-03T12:12:37.834Z,47.40
2018-03-03T12:15:04.078Z,47.05
2018-03-03T12:17:30.314Z,47.45
2018-03-03T12:19:56.592Z,46.58
2018-03-03T12:22:23.165Z,49.33
2018-03-03T12:24:49.433Z,44.40
2018-03-03T12:27:15.687Z,45.60
2018-03-03T12:29:42.279Z,44.35
2018-03-03T12:32:08.511Z,47.03
2018-03-03T12:34:34.758Z,44.13
2018-03-03T12:37:01.021Z,47.03
2018-03-03T12:39:27.658Z,47.88
2018-03-03T12:41:54.266Z,45.65
2018-03-03T12:44:20.526Z,45.72
2018-03-03T12:46:46.795Z,43.75
2018-03-03T12:49:13.065Z,42.60
2018-03-03T12:51:39.708Z,43.53
2018-03-03T12:54:05.945Z,45.30
2018-03-03T12:56:32.146Z,45.30
2018-03-03T12:58:58.730Z,44.83
2018-03-03T13:01:24.981Z,44.33
2018-03-03T13:03:51.227Z,45.75
2018-03-03T13:06:17.473Z,44.40
2018-03-03T13:08:43.779Z,44.28
2018-03-03T13:11:10.008Z,45.40
2018-03-03T13:13:36.266Z,45.97
2018-03-03T13:16:02.863Z,44.45
2018-03-03T13:18:29.107Z,47.55
2018-03-03T13:20:55.370Z,47.08
2018-03-03T13:23:21.991Z,46.17
2018-03-03T13:25:48.248Z,45.22
2018-03-03T13:28:14.497Z,43.28
2018-03-03T13:30:40.715Z,44.47
2018-03-03T13:33:07.345Z,46.28
2018-03-03T13:35:33.928Z,44.00
2018-03-03T13:38:00.166Z,45.97
2018-03-03T13:40:26.471Z,43.97
2018-03-03T13:42:52.682Z,46.75
2018-03-03T13:45:19.418Z,44.95
2018-03-03T13:47:45.642Z,46.60
2018-03-03T13:50:12.284Z,44.05
2018-03-03T13:52:38.506Z,46.55
2018-03-03T13:55:04.747Z,46.97
2018-03-03T13:57:31.458Z,43.95
2018-03-03T13:59:57.670Z,44.92
2018-03-03T14:02:23.875Z,46.42
2018-03-03T14:04:50.482Z,47.45
2018-03-03T14:07:16.714Z,48.63
2018-03-03T14:09:42.927Z,48.28
2018-03-03T14:12:09.631Z,49.88
2018-03-03T14:14:35.855Z,48.38
2018-03-03T14:17:02.076Z,49.03
2018-03-03T14:19:28.321Z,49.97
2018-03-03T14:21:54.584Z,46.97
2018-03-03T14:24:20.835Z,48.35
2018-03-03T14:26:47.085Z,48.55
2018-03-03T14:29:13.367Z,45.85
2018-03-03T14:31:39.627Z,51.40
2018-03-03T14:34:05.919Z,49.40
2018-03-03T14:36:32.490Z,46.90
2018-03-03T14:38:58.742Z,50.97
2018-03-03T14:41:24.993Z,49.47
2018-03-03T14:43:51.277Z,48.65
2018-03-03T14:46:17.563Z,51.03
2018-03-03T14:48:43.778Z,49.53
2018-03-03T14:51:10.037Z,48.63
2018-03-03T14:53:36.270Z,49.50
2018-03-03T14:56:02.498Z,48.60
2018-03-03T14:58:28.743Z,51.35
2018-03-03T15:00:54.939Z,48.33
2018-03-03T15:03:21.208Z,52.55
2018-03-03T15:05:47.467Z,47.60
2018-03-03T15:08:13.684Z,49.25
2018-03-03T15:10:39.949Z,51.50
2018-03-03T15:13:07.005Z,48.75
2018-03-03T15:15:33.268Z,47.17
2018-03-03T15:17:59.527Z,49.45
2018-03-03T15:20:26.188Z,47.53
2018-03-03T15:22:52.895Z,45.95
2018-03-03T15:25:19.203Z,52.30
2018-03-03T15:27:45.508Z,50.00
2018-03-03T15:30:12.088Z,48.87
2018-03-03T15:32:38.343Z,49.45
2018-03-03T15:35:04.989Z,52.30
2018-03-03T15:37:32.018Z,48.55
2018-03-03T15:39:58.283Z,52.08
2018-03-03T15:42:24.567Z,51.08
2018-03-03T15:44:50.838Z,49.17
2018-03-03T15:47:17.074Z,48.00
2018-03-03T15:49:43.296Z,50.33
2018-03-03T15:52:09.573Z,48.87
2018-03-03T15:54:35.801Z,52.00
2018-03-03T15:57:02.041Z,52.60
2018-03-03T15:59:28.261Z,54.00
2018-03-03T16:01:54.518Z,53.50
2018-03-03T16:04:21.150Z,55.28
2018-03-03T16:06:47.384Z,56.88
2018-03-03T16:09:14.013Z,50.63
2018-03-03T16:11:40.303Z,52.70
2018-03-03T16:14:06.533Z,52.42
2018-03-03T16:16:32.790Z,55.03
2018-03-03T16:18:58.998Z,53.10
2018-03-03T16:21:25.251Z,55.20
2018-03-03T16:23:51.551Z,52.15
2018-03-03T16:26:17.819Z,49.58
2018-03-03T16:28:44.418Z,52.35
2018-03-03T16:31:10.709Z,48.55
2018-03-03T16:33:36.965Z,48.28
2018-03-03T16:36:03.537Z,49.30
2018-03-03T16:38:29.738Z,49.40
2018-03-03T16:40:55.980Z,49.20
2018-03-03T16:43:22.241Z,54.05
2018-03-03T16:45:48.842Z,64.57
2018-03-03T16:48:15.120Z,69.03
2018-03-03T16:50:41.624Z,63.45
2018-03-03T16:53:07.855Z,54.60
2018-03-03T16:55:34.076Z,51.60
2018-03-03T16:58:01.219Z,51.53
2018-03-03T17:00:27.454Z,51.50
2018-03-03T17:02:53.712Z,52.38
2018-03-03T17:05:19.966Z,53.20
2018-03-03T17:07:46.239Z,54.38
2018-03-03T17:10:12.454Z,55.97
2018-03-03T17:12:45.552Z,56.63
2018-03-03T17:15:11.781Z,58.70
2018-03-03T17:17:38.009Z,64.65
2018-03-03T17:20:04.266Z,53.95
2018-03-03T17:22:30.915Z,53.40
2018-03-03T17:24:57.145Z,51.72
2018-03-03T17:27:23.432Z,53.65
2018-03-03T17:29:49.661Z,59.83
2018-03-03T17:32:15.938Z,58.60
2018-03-03T17:34:42.132Z,55.08
2018-03-03T17:37:08.425Z,55.63
2018-03-03T17:39:34.661Z,52.15
2018-03-03T17:42:00.902Z,54.35
2018-03-03T17:44:27.136Z,56.72
2018-03-03T17:46:53.372Z,55.53
2018-03-03T17:49:19.629Z,77.65
2018-03-03T17:51:45.900Z,58.28
2018-03-03T17:54:12.160Z,55.80
2018-03-03T17:56:38.399Z,55.85
2018-03-03T17:59:04.642Z,58.00
2018-03-03T18:01:30.947Z,53.90
2018-03-03T18:03:57.188Z,60.78
2018-03-03T18:06:23.827Z,58.47
2018-03-03T18:08:50.439Z,56.35
2018-03-03T18:11:16.698Z,56.15
2018-03-03T18:13:43.322Z,56.00
2018-03-03T18:16:09.996Z,56.08
2018-03-03T18:18:36.227Z,62.92
2018-03-03T18:21:02.456Z,61.83
2018-03-03T18:23:28.726Z,60.58
2018-03-03T18:25:54.950Z,59.17
2018-03-03T18:28:21.211Z,59.70
2018-03-03T18:30:48.933Z,63.03
2018-03-03T18:33:15.155Z,67.20
2018-03-03T18:35:41.392Z,61.67
2018-03-03T18:38:07.702Z,63.75
2018-03-03T18:40:34.020Z,61.72
2018-03-03T18:43:00.285Z,61.47
2018-03-03T18:45:26.601Z,63.90
2018-03-03T18:47:52.863Z,58.75
2018-03-03T18:50:19.087Z,55.63
2018-03-03T18:52:45.366Z,54.03
2018-03-03T18:55:11.621Z,51.58
2018-03-03T18:57:37.862Z,54.72
2018-03-03T19:00:04.165Z,50.40
2018-03-03T19:02:30.417Z,52.53
2018-03-03T19:04:56.653Z,51.35
2018-03-03T19:07:22.940Z,52.10
2018-03-03T19:09:49.184Z,51.35
2018-03-03T19:12:15.458Z,49.13
2018-03-03T19:14:42.514Z,49.28
2018-03-03T19:17:09.193Z,49.95
2018-03-03T19:19:35.460Z,49.20
2018-03-03T19:22:01.725Z,49.05
2018-03-03T19:24:27.977Z,50.67
2018-03-03T19:26:54.238Z,51.17
2018-03-03T19:29:20.531Z,50.05
2018-03-03T19:31:46.746Z,49.83
2018-03-03T19:34:13.014Z,50.80
2018-03-03T19:36:39.270Z,49.38
2018-03-03T19:39:05.915Z,51.28
2018-03-03T19:41:32.527Z,51.35
2018-03-03T19:43:58.809Z,49.40
2018-03-03T19:46:32.136Z,48.80
2018-03-03T19:48:58.813Z,50.72
2018-03-03T19:51:25.442Z,53.45
2018-03-03T19:53:52.085Z,55.83
2018-03-03T19:56:18.754Z,54.17
2018-03-03T19:58:44.998Z,53.70
2018-03-03T20:01:11.279Z,49.33
2018-03-03T20:03:37.806Z,53.60
2018-03-03T20:06:04.043Z,50.17
2018-03-03T20:08:30.653Z,52.62
2018-03-03T20:10:56.932Z,57.65
2018-03-03T20:13:23.192Z,55.17
2018-03-03T20:15:51.436Z,54.88
2018-03-03T20:18:18.045Z,56.65
2018-03-03T20:20:44.718Z,58.67
2018-03-03T20:23:10.974Z,56.42
2018-03-03T20:25:37.256Z,53.87
2018-03-03T20:28:03.863Z,56.58
2018-03-03T20:30:30.173Z,58.30
2018-03-03T20:32:56.424Z,55.80
2018-03-03T20:35:22.698Z,54.58
2018-03-03T20:37:48.958Z,56.10
2018-03-03T20:40:15.225Z,53.80
2018-03-03T20:42:41.905Z,55.05
2018-03-03T20:45:08.241Z,52.88
2018-03-03T20:47:34.529Z,52.40
2018-03-03T20:50:01.171Z,54.95
2018-03-03T20:52:27.513Z,58.30
2018-03-03T20:54:53.813Z,55.10
2018-03-03T20:57:20.084Z,53.65
2018-03-03T20:59:46.839Z,55.95
2018-03-03T21:02:13.098Z,55.58
2018-03-03T21:04:39.364Z,61.58
2018-03-03T21:07:05.903Z,54.88
2018-03-03T21:09:32.266Z,54.63
2018-03-03T21:12:14.264Z,56.85
2018-03-03T21:14:40.814Z,52.65
2018-03-03T21:17:07.121Z,56.63
2018-03-03T21:19:33.483Z,55.22
2018-03-03T21:21:59.787Z,55.88
2018-03-03T21:24:26.064Z,52.38
2018-03-03T21:26:52.387Z,56.55
2018-03-03T21:29:18.617Z,54.80
2018-03-03T21:31:44.877Z,53.58
2018-03-03T21:34:11.159Z,54.95
2018-03-03T21:36:37.429Z,55.97
2018-03-03T21:39:04.107Z,55.35
2018-03-03T21:41:30.348Z,53.80
2018-03-03T21:43:56.584Z,56.05
2018-03-03T21:46:22.817Z,58.95
2018-03-03T21:48:49.034Z,58.80
2018-03-03T21:51:15.313Z,62.35
2018-03-03T21:53:41.886Z,59.75
2018-03-03T21:56:08.110Z,54.85
2018-03-03T21:58:34.308Z,56.65
2018-03-03T22:01:00.561Z,58.10
2018-03-03T22:03:26.799Z,54.22
2018-03-03T22:05:53.075Z,55.70
2018-03-03T22:08:19.701Z,54.65
2018-03-03T22:10:45.981Z,56.63
2018-03-03T22:13:12.249Z,53.58
2018-03-03T22:15:38.523Z,56.08
2018-03-03T22:18:05.123Z,59.30
2018-03-03T22:20:31.418Z,57.70
2018-03-03T22:22:57.687Z,54.40
2018-03-03T22:25:23.979Z,57.10
2018-03-03T22:27:50.215Z,56.05
2018-03-03T22:30:16.481Z,58.58
2018-03-03T22:32:43.151Z,60.05
2018-03-03T22:35:09.412Z,61.40
2018-03-03T22:37:35.738Z,62.95
2018-03-03T22:40:02.452Z,61.97
2018-03-03T22:42:28.682Z,62.88
2018-03-03T22:44:54.920Z,59.55
2018-03-03T22:47:28.024Z,61.30
2018-03-03T22:49:54.283Z,56.45
2018-03-03T22:52:20.874Z,60.42
2018-03-03T22:54:47.138Z,58.25
2018-03-03T22:57:13.366Z,60.67
2018-03-03T22:59:39.586Z,59.15
2018-03-03T23:02:05.874Z,57.75
2018-03-03T23:04:32.086Z,55.55
2018-03-03T23:06:58.356Z,57.70
2018-03-03T23:09:24.918Z,60.20
2018-03-03T23:11:51.120Z,52.47
2018-03-03T23:14:17.371Z,52.80
2018-03-03T23:16:44.028Z,54.92
2018-03-03T23:19:10.618Z,58.63
2018-03-03T23:21:36.871Z,57.58
2018-03-03T23:24:03.113Z,56.53
2018-03-03T23:26:29.710Z,55.97
2018-03-03T23:28:55.972Z,55.75
2018-03-03T23:31:22.217Z,51.75
2018-03-03T23:33:48.826Z,51.22
2018-03-03T23:36:15.029Z,52.95
2018-03-03T23:38:41.357Z,53.85
2018-03-03T23:41:07.582Z,54.00
2018-03-03T23:43:33.781Z,52.08
2018-03-03T23:46:00.019Z,50.10
2018-03-03T23:48:26.252Z,51.50
2018-03-03T23:50:52.478Z,47.67
2018-03-03T23:53:18.728Z,45.80
2018-03-03T23:55:44.946Z,46.75
2018-03-03T23:58:11.168Z,44.28
